createdAt,value
2022-09-18T00:02:35.430Z,13.50
2022-09-18T00:07:39.122Z,13.50
2022-09-18T00:12:44.089Z,13.50
2022-09-18T00:17:47.633Z,13.50
2022-09-18T00:22:51.242Z,13.50
2022-09-18T00:27:56.355Z,13.40
2022-09-18T00:32:59.926Z,13.50
2022-09-18T00:38:03.576Z,13.40
2022-09-18T00:43:22.788Z,13.40
2022-09-18T00:48:36.874Z,13.40
2022-09-18T00:53:42.913Z,13.40
2022-09-18T00:58:48.269Z,13.40
2022-09-18T01:03:51.894Z,13.40
2022-09-18T01:09:09.452Z,13.40
2022-09-18T01:14:30.305Z,13.40
2022-09-18T01:20:25.495Z,13.40
2022-09-18T01:25:38.846Z,13.40
2022-09-18T01:30:46.697Z,13.40
2022-09-18T01:35:54.469Z,13.30
2022-09-18T01:41:03.034Z,13.30
2022-09-18T01:46:13.480Z,13.30
2022-09-18T01:51:23.129Z,13.30
2022-09-18T01:56:34.982Z,13.20
2022-09-18T02:01:41.969Z,13.20
2022-09-18T02:06:48.632Z,13.20
2022-09-18T02:11:56.756Z,13.20
2022-09-18T02:17:05.612Z,13.20
2022-09-18T02:22:18.363Z,13.20
2022-09-18T02:27:24.970Z,13.20
2022-09-18T02:32:30.173Z,13.20
2022-09-18T02:37:40.855Z,13.10
2022-09-18T02:42:53.845Z,13.20
2022-09-18T02:48:14.107Z,13.20
2022-09-18T02:53:29.697Z,13.20
2022-09-18T02:58:39.308Z,13.10
2022-09-18T03:03:45.869Z,13.10
2022-09-18T03:08:50.337Z,13.20
2022-09-18T03:13:54.036Z,13.10
2022-09-18T03:19:01.636Z,13.10
2022-09-18T03:24:05.616Z,13.20
2022-09-18T03:29:13.014Z,13.20
2022-09-18T03:34:20.141Z,13.20
2022-09-18T03:39:23.947Z,13.20
2022-09-18T03:44:29.423Z,13.20
2022-09-18T03:49:37.095Z,13.20
2022-09-18T03:54:40.780Z,13.20
2022-09-18T03:59:58.697Z,13.20
2022-09-18T04:05:21.765Z,13.20
2022-09-18T04:10:44.389Z,13.20
2022-09-18T04:15:50.423Z,13.10
2022-09-18T04:20:55.623Z,13.10
2022-09-18T04:26:01.792Z,13.10
2022-09-18T04:31:08.285Z,13.00
2022-09-18T04:36:13.451Z,13.10
2022-09-18T04:41:17.214Z,13.10
2022-09-18T04:46:22.374Z,13.00
2022-09-18T04:51:29.507Z,13.00
2022-09-18T04:56:33.423Z,13.00
2022-09-18T05:01:37.330Z,13.00
2022-09-18T05:06:48.093Z,13.00
2022-09-18T05:11:54.579Z,13.00
2022-09-18T05:16:59.978Z,13.00
2022-09-18T05:22:12.783Z,13.00
2022-09-18T05:27:26.630Z,13.00
2022-09-18T05:32:31.515Z,13.00
2022-09-18T05:37:36.590Z,13.00
2022-09-18T05:42:46.823Z,13.00
2022-09-18T05:47:56.202Z,13.10
2022-09-18T05:53:03.064Z,13.00
2022-09-18T05:58:16.896Z,13.10
2022-09-18T06:03:20.718Z,13.10
2022-09-18T06:08:25.925Z,13.10
2022-09-18T06:13:30.659Z,13.10
2022-09-18T06:18:34.362Z,13.20
2022-09-18T06:23:41.060Z,13.20
2022-09-18T06:28:52.679Z,13.20
2022-09-18T06:33:56.738Z,13.20
2022-09-18T06:39:02.402Z,13.20
2022-09-18T06:44:06.308Z,13.20
2022-09-18T06:49:14.398Z,13.20
2022-09-18T06:54:22.300Z,13.20
2022-09-18T06:59:26.542Z,13.20
2022-09-18T07:04:30.430Z,13.20
2022-09-18T07:09:38.156Z,13.20
2022-09-18T07:14:57.961Z,13.30
2022-09-18T07:20:03.755Z,13.30
2022-09-18T07:25:16.326Z,13.30
2022-09-18T07:30:21.756Z,13.30
2022-09-18T07:35:25.788Z,13.40
2022-09-18T07:40:34.500Z,13.40
2022-09-18T07:45:45.503Z,13.50
2022-09-18T07:50:49.113Z,13.50
2022-09-18T07:55:55.894Z,13.60
2022-09-18T08:01:03.053Z,13.60
2022-09-18T08:06:08.918Z,13.70
2022-09-18T08:11:14.090Z,13.70
2022-09-18T08:16:44.239Z,13.70
2022-09-18T08:22:07.890Z,13.70
2022-09-18T08:27:17.152Z,13.70
2022-09-18T08:32:23.092Z,13.70
2022-09-18T08:37:26.788Z,13.70
2022-09-18T08:43:14.828Z,13.70
2022-09-18T08:48:28.680Z,13.70
2022-09-18T08:53:40.214Z,13.70
2022-09-18T08:59:15.336Z,13.70
2022-09-18T09:04:24.063Z,13.70
2022-09-18T09:09:38.474Z,13.80
2022-09-18T09:15:21.384Z,13.80
2022-09-18T09:20:37.332Z,13.80
2022-09-18T09:25:52.463Z,13.90
2022-09-18T09:31:34.505Z,13.90
2022-09-18T09:37:07.580Z,13.90
2022-09-18T09:42:18.478Z,13.90
2022-09-18T09:47:31.235Z,13.90
2022-09-18T09:52:38.969Z,14.00
2022-09-18T09:57:55.076Z,14.00
2022-09-18T10:03:20.644Z,14.10
2022-09-18T10:08:35.690Z,14.20
2022-09-18T10:13:45.818Z,14.20
2022-09-18T10:18:53.003Z,14.20
2022-09-18T10:24:07.109Z,14.20
2022-09-18T10:29:11.646Z,14.20
2022-09-18T10:34:40.747Z,14.30
2022-09-18T10:39:52.681Z,14.40
2022-09-18T10:45:01.610Z,14.50
2022-09-18T10:50:19.213Z,14.60
2022-09-18T10:55:26.921Z,14.50
2022-09-18T11:00:50.176Z,14.50
2022-09-18T11:05:58.949Z,14.50
2022-09-18T11:11:06.353Z,14.60
2022-09-18T11:16:22.344Z,14.60
2022-09-18T11:21:30.180Z,14.60
2022-09-18T11:26:34.450Z,14.50
2022-09-18T11:31:45.022Z,14.50
2022-09-18T11:37:00.018Z,14.40
2022-09-18T11:42:10.920Z,14.30
2022-09-18T11:47:38.561Z,14.20
2022-09-18T11:52:49.062Z,14.20
2022-09-18T11:57:58.682Z,14.20
2022-09-18T12:03:12.556Z,14.20
2022-09-18T12:08:26.089Z,14.20
2022-09-18T12:13:48.497Z,14.20
2022-09-18T12:19:03.492Z,14.20
2022-09-18T12:24:14.017Z,14.20
2022-09-18T12:29:33.462Z,14.20
2022-09-18T12:34:44.335Z,14.20
2022-09-18T12:40:13.133Z,14.20
2022-09-18T12:45:47.021Z,14.20
2022-09-18T12:51:11.015Z,14.10
2022-09-18T12:56:27.829Z,14.10
2022-09-18T13:01:36.288Z,14.00
2022-09-18T13:06:45.995Z,14.00
2022-09-18T13:11:53.922Z,14.00
2022-09-18T13:17:03.419Z,14.00
2022-09-18T13:22:12.545Z,13.90
2022-09-18T13:27:21.286Z,14.00
2022-09-18T13:32:38.051Z,13.90
2022-09-18T13:37:43.119Z,13.90
2022-09-18T13:42:48.594Z,13.90
2022-09-18T13:48:05.018Z,13.90
2022-09-18T13:53:29.940Z,13.90
2022-09-18T13:58:54.567Z,13.90
2022-09-18T14:04:00.512Z,13.90
2022-09-18T14:09:05.118Z,13.90
2022-09-18T14:14:14.693Z,13.80
2022-09-18T14:19:32.253Z,13.80
2022-09-18T14:24:57.346Z,13.90
2022-09-18T14:30:13.937Z,13.80
2022-09-18T14:35:29.539Z,13.80
2022-09-18T14:40:36.749Z,13.80
2022-09-18T14:45:42.075Z,13.80
2022-09-18T14:50:45.847Z,13.80
2022-09-18T14:55:55.946Z,13.80
2022-09-18T15:01:01.572Z,13.80
2022-09-18T15:06:11.772Z,13.70
2022-09-18T15:11:17.315Z,13.70
2022-09-18T15:16:27.189Z,13.70
2022-09-18T15:21:33.488Z,13.70
2022-09-18T15:26:42.787Z,13.70
2022-09-18T15:31:47.974Z,13.70
2022-09-18T15:36:57.255Z,13.70
2022-09-18T15:42:18.818Z,13.70
2022-09-18T15:47:34.931Z,13.70
2022-09-18T15:52:40.354Z,13.70
2022-09-18T15:57:49.614Z,13.70
2022-09-18T16:02:58.994Z,13.70
2022-09-18T16:08:04.774Z,13.70
2022-09-18T16:13:31.268Z,13.70
2022-09-18T16:18:48.595Z,13.70
2022-09-18T16:23:55.263Z,13.60
2022-09-18T16:29:01.584Z,13.60
2022-09-18T16:34:21.545Z,13.60
2022-09-18T16:39:26.395Z,13.60
2022-09-18T16:44:29.995Z,13.60
2022-09-18T16:49:38.244Z,13.60
2022-09-18T16:54:42.003Z,13.60
2022-09-18T16:59:45.954Z,13.60
2022-09-18T17:04:51.022Z,13.60
2022-09-18T17:09:54.996Z,13.60
2022-09-18T17:14:58.712Z,13.50
2022-09-18T17:20:04.859Z,13.50
2022-09-18T17:25:09.344Z,13.40
2022-09-18T17:30:13.809Z,13.40
2022-09-18T17:35:19.104Z,13.30
2022-09-18T17:40:23.059Z,13.30
2022-09-18T17:45:26.848Z,13.30
2022-09-18T17:50:31.838Z,13.20
2022-09-18T17:55:35.550Z,13.20
2022-09-18T18:00:39.433Z,13.10
2022-09-18T18:05:51.614Z,13.20
2022-09-18T18:10:55.857Z,13.20
2022-09-18T18:16:07.018Z,13.10
2022-09-18T18:21:12.339Z,13.10
2022-09-18T18:26:16.465Z,13.10
2022-09-18T18:31:20.944Z,13.10
2022-09-18T18:36:29.678Z,13.00
2022-09-18T18:41:37.170Z,13.00
2022-09-18T18:46:41.205Z,12.90
2022-09-18T18:51:48.595Z,12.90
2022-09-18T18:56:52.704Z,12.90
2022-09-18T19:01:57.484Z,12.80
2022-09-18T19:07:02.892Z,12.80
2022-09-18T19:12:06.866Z,12.80
2022-09-18T19:17:10.935Z,12.70
2022-09-18T19:22:17.615Z,12.60
2022-09-18T19:27:21.641Z,12.60
2022-09-18T19:32:25.612Z,12.60
2022-09-18T19:37:30.704Z,12.50
2022-09-18T19:42:35.109Z,12.60
2022-09-18T19:47:41.944Z,12.50
2022-09-18T19:52:51.177Z,12.50
2022-09-18T19:57:57.223Z,12.40
2022-09-18T20:03:01.689Z,12.40
2022-09-18T20:08:07.592Z,12.40
2022-09-18T20:13:13.225Z,12.40
2022-09-18T20:18:17.450Z,12.30
2022-09-18T20:23:22.635Z,12.30
2022-09-18T20:28:26.286Z,12.30
2022-09-18T20:33:29.915Z,12.30
2022-09-18T20:38:36.842Z,12.30
2022-09-18T20:43:41.778Z,12.20
2022-09-18T20:48:54.989Z,12.20
2022-09-18T20:54:00.348Z,12.20
2022-09-18T20:59:05.061Z,12.20
2022-09-18T21:04:11.336Z,12.20
2022-09-18T21:09:16.559Z,12.10
2022-09-18T21:14:21.218Z,12.10
2022-09-18T21:19:26.143Z,12.10
2022-09-18T21:24:32.351Z,12.10
2022-09-18T21:29:36.011Z,12.10
2022-09-18T21:34:40.283Z,12.10
2022-09-18T21:39:45.290Z,12.10
2022-09-18T21:44:49.084Z,12.00
2022-09-18T21:49:52.742Z,12.00
2022-09-18T21:54:57.764Z,12.00
2022-09-18T22:00:01.937Z,12.00
2022-09-18T22:05:16.087Z,11.90
2022-09-18T22:10:21.137Z,11.90
2022-09-18T22:15:24.801Z,11.90
2022-09-18T22:20:28.597Z,11.90
2022-09-18T22:25:34.865Z,11.90
2022-09-18T22:30:39.500Z,11.80
2022-09-18T22:35:43.092Z,11.80
2022-09-18T22:40:48.127Z,11.80
2022-09-18T22:45:51.807Z,11.80
2022-09-18T22:50:55.569Z,11.80
2022-09-18T22:56:04.577Z,11.70
2022-09-18T23:01:09.841Z,11.70
2022-09-18T23:06:14.498Z,11.70
2022-09-18T23:11:23.259Z,11.70
2022-09-18T23:16:29.324Z,11.60
2022-09-18T23:21:35.088Z,11.60
2022-09-18T23:26:42.367Z,11.60
2022-09-18T23:31:49.818Z,11.60
2022-09-18T23:36:56.152Z,11.60
2022-09-18T23:42:02.635Z,11.60
2022-09-18T23:47:06.688Z,11.50
2022-09-18T23:52:10.373Z,11.50
2022-09-18T23:57:15.361Z,11.50
